^^
Station Historical Data
Daily Summary for February 8, 2017 Units:  Metric    English   Both
« Previous Day
Next Day »
Daily Weekly Monthly Yearly Custom
  High: Low: Average:
Temperature: 38.1 °C 20.1 °C 27.4 °C
Dew Point: 15.4 °C 10.2 °C 12.3 °C
Humidity: 59% 20% 42%
Wind Speed: 32km/h 0km/h 11.4km/h
Wind Gust: 38.6km/h - -
Wind- - SSW
Pressure: 1009 hPa 1002.6 hPa -
Precipitation: 0 mm    
Historical Graphs
 
 
Tabular Data for February 8, 2017
Time Temperature Dew Point Pressure Wind Wind Speed Wind Gust Humidity Rainfall Rate (Hourly) solar Conditions
03:51 20.8 °C 12 °C 1007.3 hPa SSW 11.1 km/h 12.9 km/h 57% 0 mm 0.0 W/m2
04:01 20.8 °C 12 °C 1007.3 hPa SSW 4.7 km/h 12.9 km/h 57% 0 mm 0.0 W/m2
04:21 20.6 °C 12 °C 1007.3 hPa SSW 6.4 km/h 12.9 km/h 58% 0 mm 0.0 W/m2
04:36 20.6 °C 12 °C 1007.7 hPa SSW 9.7 km/h 9.7 km/h 58% 0 mm 0.0 W/m2
04:41 20.6 °C 12 °C 1007.3 hPa SSW 9.7 km/h 11.3 km/h 58% 0 mm 0.0 W/m2
04:46 20.5 °C 12 °C 1007.3 hPa SSW 7.9 km/h 11.3 km/h 58% 0 mm 0.0 W/m2
04:51 20.5 °C 12 °C 1007.3 hPa SSW 9.7 km/h 11.3 km/h 58% 0 mm 0.0 W/m2
04:56 20.5 °C 12.2 °C 1007.3 hPa SSW 7.9 km/h 11.3 km/h 59% 0 mm 0.0 W/m2
05:06 20.5 °C 12.2 °C 1007.3 hPa SSW 6.4 km/h 9.7 km/h 59% 0 mm 0.0 W/m2
05:17 20.5 °C 12 °C 1007.3 hPa SSW 7.9 km/h 11.3 km/h 58% 0 mm 0.0 W/m2
05:22 20.4 °C 11.9 °C 1007.3 hPa SSW 7.9 km/h 9.7 km/h 58% 0 mm 0.0 W/m2
05:27 20.4 °C 11.9 °C 1007.3 hPa SSW 13 km/h 13 km/h 58% 0 mm 0.0 W/m2
05:37 20.4 °C 12.1 °C 1007.3 hPa SSW 11.1 km/h 14.5 km/h 59% 0 mm 0.0 W/m2
05:42 20.5 °C 12.2 °C 1007.3 hPa SSW 11.1 km/h 14.5 km/h 59% 0 mm 0.0 W/m2
05:52 20.5 °C 12 °C 1007.3 hPa SSW 7.9 km/h 12.9 km/h 58% 0 mm 0.0 W/m2
05:56 20.5 °C 12 °C 1007.3 hPa SSW 9.7 km/h 12.9 km/h 58% 0 mm 0.0 W/m2
06:07 20.5 °C 12.2 °C 1007.3 hPa SSW 9.7 km/h 12.9 km/h 59% 0 mm 0.0 W/m2
06:27 20.2 °C 11.9 °C 1007.3 hPa SSW 14.3 km/h 14.5 km/h 59% 0 mm 0.0 W/m2
06:32 20.2 °C 11.9 °C 1007.3 hPa SSW 11.1 km/h 14.5 km/h 59% 0 mm 7.0 W/m2
06:36 20.1 °C 11.8 °C 1007.3 hPa SSW 11.1 km/h 12.9 km/h 59% 0 mm 11.0 W/m2
06:41 20.2 °C 11.9 °C 1007.7 hPa SSW 7.9 km/h 12.9 km/h 59% 0 mm 12.0 W/m2
07:06 20.1 °C 11.6 °C 1007.7 hPa SSW 16.3 km/h 16.3 km/h 58% 0 mm 63.0 W/m2
07:15 20.2 °C 11.7 °C 1007.7 hPa SSW 13 km/h 16.1 km/h 58% 0 mm 81.0 W/m2
07:20 20.3 °C 11.5 °C 1008 hPa SSW 13 km/h 16.1 km/h 57% 0 mm 100.0 W/m2
07:31 20.5 °C 11.4 °C 1008 hPa SSW 9.7 km/h 14.5 km/h 56% 0 mm 141.0 W/m2
07:41 20.9 °C 11.5 °C 1008 hPa SSW 13 km/h 16.1 km/h 55% 0 mm 181.0 W/m2
07:49 21.2 °C 11.8 °C 1008.4 hPa SSW 7.9 km/h 14.5 km/h 55% 0 mm 221.0 W/m2
07:52 21.3 °C 11.9 °C 1008.4 hPa SSW 14.3 km/h 14.5 km/h 55% 0 mm 241.0 W/m2
08:03 21.4 °C 12 °C 1008.4 hPa SSW 13 km/h 14.5 km/h 55% 0 mm 278.0 W/m2
08:29 21.8 °C 12.4 °C 1008.7 hPa SSW 9.7 km/h 12.9 km/h 55% 0 mm 392.0 W/m2
08:32 21.9 °C 12.5 °C 1008.7 hPa SSW 11.1 km/h 14.5 km/h 55% 0 mm 151.0 W/m2
08:37 22 °C 12.5 °C 1008.7 hPa SSW 9.7 km/h 11.3 km/h 55% 0 mm 225.0 W/m2
09:05 23.1 °C 12.7 °C 1008.7 hPa SSW 16.3 km/h 16.3 km/h 52% 0 mm 216.0 W/m2
09:07 23.3 °C 12.9 °C 1008.7 hPa SSW 13 km/h 14.5 km/h 52% 0 mm 401.0 W/m2
09:12 23.7 °C 13 °C 1008.7 hPa SSW 13 km/h 13 km/h 51% 0 mm 359.0 W/m2
09:17 23.9 °C 12.8 °C 1008.7 hPa SSW 9.7 km/h 11.3 km/h 50% 0 mm 246.0 W/m2
09:27 24.1 °C 12.7 °C 1008.7 hPa SSW 7.9 km/h 9.7 km/h 49% 0 mm 230.0 W/m2
09:42 24.7 °C 13 °C 1009 hPa SSW 6.4 km/h 9.7 km/h 48% 0 mm 677.0 W/m2
09:51 25.9 °C 13.1 °C 1008.7 hPa Calm     45% 0 mm 721.0 W/m2
09:58 26.8 °C 13.2 °C 1008.7 hPa Calm     43% 0 mm 724.0 W/m2
10:03 27.2 °C 13.2 °C 1008.7 hPa Calm     42% 0 mm 733.0 W/m2
10:08 27.7 °C 13.6 °C 1008.7 hPa Calm     42% 0 mm 745.0 W/m2
10:25 28.3 °C 13.8 °C 1008.4 hPa Calm     41% 0 mm 735.0 W/m2
10:33 29.2 °C 14.2 °C 1008.4 hPa Calm     40% 0 mm 758.0 W/m2
10:44 29.6 °C 14.6 °C 1008.4 hPa Calm     40% 0 mm 780.0 W/m2
10:54 30.2 °C 15.1 °C 1008.4 hPa Calm   8 km/h 40% 0 mm 802.0 W/m2
11:01 30.3 °C 14.8 °C 1008 hPa Calm   6.4 km/h 39% 0 mm 814.0 W/m2
15:07 37.6 °C 15.4 °C 1004.3 hPa Calm   8 km/h 27% 0 mm 861.0 W/m2
15:13 37.3 °C 15.2 °C 1004.3 hPa Calm   12.9 km/h 27% 0 mm 877.0 W/m2
15:29 37.2 °C 14.5 °C 1003.9 hPa West 4.7 km/h 9.7 km/h 26% 0 mm 868.0 W/m2
15:36 37.5 °C 14.7 °C 1003.9 hPa West 9.7 km/h 14.5 km/h 26% 0 mm 824.0 W/m2
15:41 37.4 °C 14.7 °C 1003.9 hPa West 4.7 km/h 11.3 km/h 26% 0 mm 800.0 W/m2
15:46 37.2 °C 14.5 °C 1003.6 hPa Calm   11.3 km/h 26% 0 mm 765.0 W/m2
17:06 37.9 °C 12.5 °C 1002.6 hPa Calm   12.9 km/h 22% 0 mm 513.0 W/m2
17:11 37.8 °C 12.4 °C 1002.9 hPa West 9.7 km/h 9.7 km/h 22% 0 mm 496.0 W/m2
17:16 37.9 °C 13.2 °C 1002.6 hPa West 9.7 km/h 17.7 km/h 23% 0 mm 490.0 W/m2
17:26 38.1 °C 12.7 °C 1002.6 hPa Calm   6.4 km/h 22% 0 mm 476.0 W/m2
17:31 38.1 °C 12.7 °C 1002.6 hPa Calm   12.9 km/h 22% 0 mm 450.0 W/m2
17:41 38 °C 11.9 °C 1002.6 hPa SSW 14.3 km/h 20.9 km/h 21% 0 mm 431.0 W/m2
17:46 37.9 °C 11.8 °C 1002.6 hPa South 11.1 km/h 20.9 km/h 21% 0 mm 383.0 W/m2
17:51 37.8 °C 11.7 °C 1002.6 hPa SSE 20.9 km/h 33.8 km/h 21% 0 mm 359.0 W/m2
17:56 37.9 °C 11.8 °C 1002.6 hPa SSE 20.9 km/h 30.6 km/h 21% 0 mm 329.0 W/m2
18:06 37.7 °C 11.6 °C 1002.6 hPa South 16.3 km/h 22.5 km/h 21% 0 mm 274.0 W/m2
18:20 37.2 °C 11.2 °C 1002.6 hPa SSW 28.8 km/h 29 km/h 21% 0 mm 209.0 W/m2
18:25 37.1 °C 11.1 °C 1002.9 hPa SSW 28.8 km/h 35.4 km/h 21% 0 mm 185.0 W/m2
18:30 36.8 °C 10.2 °C 1002.9 hPa South 20.9 km/h 37 km/h 20% 0 mm 165.0 W/m2
18:35 36.8 °C 10.2 °C 1002.9 hPa SSW 28.8 km/h 38.6 km/h 20% 0 mm 148.0 W/m2
18:49 36.3 °C 10.5 °C 1002.9 hPa SSW 28.8 km/h 32.2 km/h 21% 0 mm 105.0 W/m2
18:50 36.2 °C 11.1 °C 1002.9 hPa SSW 28.8 km/h 35.4 km/h 22% 0 mm 88.0 W/m2
19:02 35.7 °C 11.4 °C 1003.3 hPa South 32 km/h 32.2 km/h 23% 0 mm 54.0 W/m2
20:51 30.2 °C 12.1 °C 1005.6 hPa SW 14.3 km/h 22.5 km/h 33% 0 mm 0.0 W/m2
21:14 29.7 °C 11.7 °C 1006 hPa SW 14.3 km/h 20.9 km/h 33% 0 mm 0.0 W/m2
22:03 27.8 °C 11.4 °C 1006.3 hPa SW 24.1 km/h 24.1 km/h 36% 0 mm 0.0 W/m2
22:24 27.6 °C 11.2 °C 1006.7 hPa SW 11.1 km/h 20.9 km/h 36% 0 mm 0.0 W/m2
22:34 27.3 °C 10.9 °C 1006.7 hPa SW 19.5 km/h 22.5 km/h 36% 0 mm 0.0 W/m2
22:38 27.1 °C 11.2 °C 1007 hPa SW 20.9 km/h 20.9 km/h 37% 0 mm 0.0 W/m2
22:43 26.9 °C 11 °C 1007 hPa SW 17.7 km/h 20.9 km/h 37% 0 mm 0.0 W/m2
23:19 26.4 °C 10.9 °C 1007.3 hPa SSW 19.5 km/h 22.5 km/h 38% 0 mm 0.0 W/m2
23:23 26.3 °C 10.8 °C 1007.3 hPa SSW 25.9 km/h 25.9 km/h 38% 0 mm 0.0 W/m2
23:34 26.3 °C 10.8 °C 1007.3 hPa SW 17.7 km/h 24.1 km/h 38% 0 mm 0.0 W/m2
23:58 26.2 °C 10.4 °C 1006.7 hPa SSW 25.9 km/h 27.4 km/h 37% 0 mm 0.0 W/m2
23:59 26.2 °C 10.8 °C 1006.7 hPa SW 19.5 km/h 24.1 km/h 38% 0 mm 0.0 W/m2
Canyon Roadhouse, Fishriver Canyon, Namibia
Compliments of Weather Underground - 2 mb